Main page


Airports :

Deauville, France

Deauville – Normandie Airport

latitude: 49-21-55N, longitude: 000-09-16E, elevation: 146 m

Current weather observation

The report was made 36 minutes ago, at 17:00 UTC
Wind 14 kt from the Northeast, varying between North and East/Northeast
Temperature 5°C
Humidity 65%
Pressure 1028 hPa
Visibility 10 km or more
Broken clouds at a height of 3000 ft

METAR: LFRG 201700Z AUTO 04014KT 010V070 9999 BKN030 05/M01 Q1028 BECMG VRB03KT

Time: 18:36 (17:36 UTC)


The report was made 3 hours and 36 minutes ago, at 14:00 UTC
Forecast valid from 20 at 15 UTC to 20 at 24 UTC
Wind 17 kt from the North/Northeast with gusts up to 27 kt
Visibility 10 km or more
Broken clouds at a height of 2500 ft
from 20 at 18 UTC to 20 at 21 UTC
Wind 3 kt from variable directions

TAF: LFRG 201400Z 2015/2024 02017G27KT 9999 BKN025 BECMG 2018/2021 VRB03KT

Weather observations and forecasts of more than 4000 airports (METAR and TAF reports).

The available stations are represented by yellow and red dots on the map.

Hover mouse over dot to see the name of the station.

Then click to see weather observations and forecasts.

To change the map : click on the green buttons with a black cross to zoom in, on the green button with a dash to zoom out, or on the green arrows for adjacent maps.